Time;durP1;ratioP1;P1;durP2;ratioP2;P2;SDS_P1;SDS_P2;PMS_P1;PMS_P2;Temp;Humidity;BMP_temperature;BMP_pressure;BME280_temperature;BME280_humidity;BME280_pressure;Samples;Min_cycle;Max_cycle;Signal;HPM_P1;HPM_P2
2020/12/20 00:00:59;;;;;;;8.85;5.68;;;7.30;57.50;;;;;;5050411;28;20112;-72
2020/12/20 00:03:25;;;;;;;8.73;5.50;;;7.40;57.60;;;;;;5052117;28;20427;-72
2020/12/20 00:05:52;;;;;;;10.50;6.00;;;7.40;57.60;;;;;;5053322;28;20053;-72
2020/12/20 00:08:17;;;;;;;10.07;5.68;;;7.40;57.60;;;;;;5051499;28;20033;-72
2020/12/20 00:10:43;;;;;;;10.07;6.38;;;7.40;57.60;;;;;;5052793;28;20028;-72
2020/12/20 00:13:09;;;;;;;9.38;6.10;;;7.40;57.60;;;;;;5052621;28;20393;-72
2020/12/20 00:15:34;;;;;;;11.48;6.35;;;7.40;57.60;;;;;;5052911;28;20070;-73
2020/12/20 00:18:00;;;;;;;7.90;5.88;;;7.40;57.60;;;;;;5051155;28;20108;-72
2020/12/20 00:20:26;;;;;;;11.93;6.82;;;7.40;57.70;;;;;;5052779;28;20021;-73
2020/12/20 00:22:52;;;;;;;9.40;5.85;;;7.50;57.70;;;;;;5052536;28;20547;-73
2020/12/20 00:25:18;;;;;;;8.38;5.85;;;7.50;57.70;;;;;;5052298;28;20037;-73
2020/12/20 00:27:43;;;;;;;13.35;6.55;;;7.50;57.60;;;;;;5052072;28;20033;-72
2020/12/20 00:30:10;;;;;;;8.73;5.53;;;7.50;57.50;;;;;;5052354;28;20028;-72
2020/12/20 00:32:36;;;;;;;7.90;5.50;;;7.40;57.50;;;;;;5052403;28;20040;-72
2020/12/20 00:35:05;;;;;;;9.35;5.95;;;7.40;57.40;;;;;;5052661;28;20497;-72
2020/12/20 00:37:30;;;;;;;10.48;6.55;;;7.50;57.50;;;;;;5050476;28;20075;-72
2020/12/20 00:39:57;;;;;;;9.55;5.75;;;7.40;57.40;;;;;;5050960;28;20021;-72
2020/12/20 00:42:23;;;;;;;10.68;5.25;;;7.40;57.50;;;;;;5052103;28;20021;-72
2020/12/20 00:44:49;;;;;;;9.25;5.13;;;7.40;57.50;;;;;;5052433;28;20029;-71
2020/12/20 00:47:14;;;;;;;11.88;6.22;;;7.50;57.60;;;;;;5052363;28;20128;-72
2020/12/20 00:49:40;;;;;;;10.70;6.20;;;7.40;57.60;;;;;;5051173;28;20025;-72
2020/12/20 00:52:07;;;;;;;9.82;6.53;;;7.50;57.60;;;;;;5052249;28;20035;-72
2020/12/20 00:54:33;;;;;;;10.20;6.57;;;7.40;57.40;;;;;;5052140;28;20432;-72
2020/12/20 00:56:59;;;;;;;7.68;5.70;;;7.40;57.40;;;;;;5050910;28;20112;-72
2020/12/20 00:59:25;;;;;;;8.50;5.78;;;7.40;57.40;;;;;;5050647;28;20128;-72
2020/12/20 01:01:51;;;;;;;8.05;5.05;;;7.50;57.50;;;;;;5050622;28;20025;-72
2020/12/20 01:04:17;;;;;;;9.68;6.18;;;7.40;57.40;;;;;;5052403;28;20516;-72
2020/12/20 01:06:43;;;;;;;10.38;6.45;;;7.40;57.40;;;;;;5050847;28;20025;-72
2020/12/20 01:09:09;;;;;;;9.35;5.97;;;7.40;57.40;;;;;;5051919;28;20033;-72
2020/12/20 01:11:37;;;;;;;10.82;6.15;;;7.40;57.40;;;;;;5052072;28;20470;-72
2020/12/20 01:14:04;;;;;;;8.07;5.70;;;7.50;57.50;;;;;;5051811;28;20024;-72
2020/12/20 01:16:30;;;;;;;8.38;5.53;;;7.50;57.50;;;;;;5050636;28;20510;-72
2020/12/20 01:18:59;;;;;;;9.18;6.07;;;7.50;57.50;;;;;;5035657;28;20029;-72
2020/12/20 01:21:26;;;;;;;9.75;6.45;;;7.50;57.60;;;;;;5036433;28;20016;-72
2020/12/20 01:23:52;;;;;;;8.98;6.10;;;7.50;57.50;;;;;;5052189;28;20017;-72
2020/12/20 01:26:20;;;;;;;10.70;6.03;;;7.50;57.50;;;;;;5050535;28;20560;-72
2020/12/20 01:28:45;;;;;;;10.43;6.05;;;7.50;57.40;;;;;;5052137;28;20534;-72
2020/12/20 01:31:12;;;;;;;9.50;6.28;;;7.50;57.40;;;;;;5051595;28;20112;-72
2020/12/20 01:33:42;;;;;;;11.20;7.00;;;7.40;57.40;;;;;;5052086;28;20025;-72
2020/12/20 01:36:10;;;;;;;11.10;6.53;;;7.40;57.40;;;;;;5051633;28;20028;-73
2020/12/20 01:38:37;;;;;;;10.27;6.28;;;7.40;57.40;;;;;;5051829;28;20063;-72
2020/12/20 01:41:03;;;;;;;10.35;6.32;;;7.40;57.50;;;;;;5051660;28;20025;-72
2020/12/20 01:43:49;;;;;;;10.05;6.25;;;7.50;57.60;;;;;;5051699;28;20474;-72
2020/12/20 01:46:17;;;;;;;12.10;6.38;;;7.50;57.60;;;;;;5050543;28;20482;-72
2020/12/20 01:48:48;;;;;;;10.75;6.50;;;7.50;57.60;;;;;;5053768;28;20449;-72
2020/12/20 01:51:14;;;;;;;11.02;6.38;;;7.50;57.60;;;;;;5055337;28;20433;-72
2020/12/20 01:53:40;;;;;;;10.23;6.07;;;7.50;58.10;;;;;;5055629;28;20025;-72
2020/12/20 01:56:07;;;;;;;10.45;7.07;;;7.50;57.60;;;;;;5055337;28;20442;-72
2020/12/20 01:58:36;;;;;;;11.52;6.70;;;7.50;57.60;;;;;;5055527;28;20029;-72
2020/12/20 02:01:06;;;;;;;8.95;5.65;;;7.50;57.50;;;;;;5053712;28;20103;-73
2020/12/20 02:03:33;;;;;;;11.57;6.60;;;7.50;57.60;;;;;;5054876;28;20083;-72
2020/12/20 02:05:59;;;;;;;11.43;6.97;;;7.50;57.60;;;;;;5053816;28;20090;-72
2020/12/20 02:08:28;;;;;;;9.98;6.53;;;7.50;57.60;;;;;;5053661;28;20021;-72
2020/12/20 02:11:10;;;;;;;10.38;7.18;;;7.50;57.60;;;;;;5055288;28;20479;-72
2020/12/20 02:13:40;;;;;;;10.77;6.15;;;7.50;57.50;;;;;;5054908;28;20028;-72
2020/12/20 02:16:06;;;;;;;12.75;7.22;;;7.50;57.50;;;;;;5055248;28;20033;-73
2020/12/20 02:18:32;;;;;;;11.52;6.53;;;7.60;57.60;;;;;;5041582;28;20033;-72
2020/12/20 02:20:58;;;;;;;11.20;6.82;;;7.50;57.50;;;;;;5035262;28;20078;-72
2020/12/20 02:23:23;;;;;;;12.90;7.47;;;7.50;57.50;;;;;;5054656;28;20056;-72
2020/12/20 02:25:51;;;;;;;14.52;7.60;;;7.60;57.60;;;;;;5054827;28;20128;-72
2020/12/20 02:28:18;;;;;;;10.15;6.18;;;7.50;57.50;;;;;;5054482;28;20021;-72
2020/12/20 02:30:44;;;;;;;10.57;6.53;;;7.50;57.60;;;;;;5054490;28;20055;-72
2020/12/20 02:33:10;;;;;;;9.85;5.95;;;7.60;57.70;;;;;;5054606;28;20498;-72
2020/12/20 02:35:35;;;;;;;12.68;7.85;;;7.60;57.70;;;;;;5054805;28;20029;-72
2020/12/20 02:38:01;;;;;;;11.85;7.85;;;7.60;57.60;;;;;;5054350;28;20107;-72
2020/12/20 02:40:30;;;;;;;12.20;7.60;;;7.60;57.60;;;;;;5054422;28;20482;-72
2020/12/20 02:42:56;;;;;;;16.38;7.60;;;7.60;57.50;;;;;;5054280;28;20482;-72
2020/12/20 02:45:21;;;;;;;12.02;7.25;;;7.50;57.50;;;;;;5054310;28;20035;-72
2020/12/20 02:47:47;;;;;;;10.10;6.18;;;7.50;57.50;;;;;;5054628;28;20544;-73
2020/12/20 02:50:13;;;;;;;10.63;6.28;;;7.50;57.60;;;;;;5054501;28;20021;-72
2020/12/20 02:52:38;;;;;;;8.70;6.20;;;7.50;57.70;;;;;;5054290;28;20029;-72
2020/12/20 02:55:04;;;;;;;10.95;6.57;;;7.50;57.70;;;;;;5054130;28;20025;-73
2020/12/20 02:57:30;;;;;;;11.75;7.22;;;7.50;57.70;;;;;;5054222;28;20482;-72
2020/12/20 02:59:55;;;;;;;9.93;6.35;;;7.50;57.80;;;;;;5051902;28;20099;-72
2020/12/20 03:02:21;;;;;;;12.20;7.00;;;7.50;57.80;;;;;;5054032;28;20028;-72
2020/12/20 03:04:47;;;;;;;12.63;6.47;;;7.50;57.80;;;;;;5053033;28;20029;-72
2020/12/20 03:07:12;;;;;;;11.10;6.30;;;7.50;57.80;;;;;;5053807;28;20048;-72
2020/12/20 03:09:38;;;;;;;12.63;7.50;;;7.50;57.80;;;;;;5052833;28;20132;-72
2020/12/20 03:12:04;;;;;;;10.75;6.53;;;7.50;57.70;;;;;;5053547;28;20037;-72
2020/12/20 03:14:29;;;;;;;11.27;6.90;;;7.50;57.70;;;;;;5053815;28;20036;-73
2020/12/20 03:16:55;;;;;;;10.35;6.28;;;7.50;57.70;;;;;;5054023;28;20029;-72
2020/12/20 03:19:21;;;;;;;10.80;6.95;;;7.50;57.70;;;;;;5033918;28;20021;-72
2020/12/20 03:21:46;;;;;;;13.07;7.15;;;7.50;57.80;;;;;;5042745;28;20024;-72
2020/12/20 03:24:12;;;;;;;11.95;6.97;;;7.50;57.70;;;;;;5052420;28;20025;-72
2020/12/20 03:26:38;;;;;;;12.20;7.15;;;7.50;57.70;;;;;;5053602;28;20032;-72
2020/12/20 03:29:03;;;;;;;11.48;7.15;;;7.50;57.70;;;;;;5052536;28;20029;-72
2020/12/20 03:31:30;;;;;;;10.32;6.32;;;7.40;57.70;;;;;;5053467;28;20025;-72
2020/12/20 03:33:56;;;;;;;11.65;6.97;;;7.40;57.80;;;;;;5053742;28;20450;-72
2020/12/20 03:36:21;;;;;;;10.68;6.57;;;7.40;57.80;;;;;;5053222;28;20096;-72
2020/12/20 03:38:47;;;;;;;12.45;6.70;;;7.40;57.80;;;;;;5052345;28;20098;-72
2020/12/20 03:41:13;;;;;;;10.75;6.82;;;7.40;57.80;;;;;;5053056;28;20064;-72
2020/12/20 03:43:38;;;;;;;10.88;6.65;;;7.40;57.90;;;;;;5053071;28;20087;-72
2020/12/20 03:46:04;;;;;;;10.57;6.30;;;7.40;57.90;;;;;;5053409;28;20120;-72
2020/12/20 03:48:30;;;;;;;11.05;6.78;;;7.40;57.90;;;;;;5051893;28;20079;-72
2020/12/20 03:50:57;;;;;;;10.98;6.15;;;7.40;57.90;;;;;;5053299;28;20025;-72
2020/12/20 03:53:22;;;;;;;11.07;6.40;;;7.40;57.90;;;;;;5036192;28;20025;-72
2020/12/20 03:55:48;;;;;;;11.55;6.70;;;7.50;57.90;;;;;;5053013;28;20051;-72
2020/12/20 03:58:14;;;;;;;12.60;7.05;;;7.50;57.90;;;;;;5053080;28;20060;-72
2020/12/20 04:00:39;;;;;;;9.50;6.18;;;7.50;57.80;;;;;;5052850;28;20112;-73
2020/12/20 04:03:05;;;;;;;10.25;6.50;;;7.50;57.80;;;;;;5053025;28;20035;-72
2020/12/20 04:05:31;;;;;;;10.18;6.13;;;7.50;57.80;;;;;;5052766;28;20032;-73
2020/12/20 04:07:56;;;;;;;12.40;5.90;;;7.50;57.90;;;;;;5051688;28;20493;-72
2020/12/20 04:10:22;;;;;;;10.50;6.78;;;7.50;57.90;;;;;;5051817;28;20075;-72
2020/12/20 04:12:48;;;;;;;13.15;7.05;;;7.50;57.80;;;;;;5052421;28;20402;-72
2020/12/20 04:15:14;;;;;;;10.98;7.03;;;7.50;57.70;;;;;;5052791;28;20036;-72
2020/12/20 04:17:39;;;;;;;9.63;6.00;;;7.50;57.70;;;;;;5046487;28;20538;-72
2020/12/20 04:20:05;;;;;;;12.45;6.63;;;7.50;57.80;;;;;;5032938;28;20163;-72
2020/12/20 04:22:31;;;;;;;12.27;6.65;;;7.50;57.80;;;;;;5045725;28;20041;-72
2020/12/20 04:24:56;;;;;;;12.40;5.97;;;7.50;57.80;;;;;;5052643;28;20045;-72
2020/12/20 04:27:22;;;;;;;9.18;5.70;;;7.40;57.80;;;;;;5052524;28;20033;-72
2020/12/20 04:29:48;;;;;;;12.27;6.68;;;7.40;57.90;;;;;;5052508;28;20041;-72
2020/12/20 04:32:13;;;;;;;9.50;5.78;;;7.50;57.90;;;;;;5051203;28;20028;-72
2020/12/20 04:34:39;;;;;;;11.25;6.63;;;7.50;57.90;;;;;;5052613;28;20083;-72
2020/12/20 04:37:05;;;;;;;15.40;6.95;;;7.50;58.00;;;;;;5052215;28;20036;-72
2020/12/20 04:39:30;;;;;;;10.05;6.35;;;7.50;58.00;;;;;;5052519;28;20092;-72
2020/12/20 04:41:58;;;;;;;10.85;6.15;;;7.50;57.90;;;;;;5052207;28;20105;-72
2020/12/20 04:44:24;;;;;;;8.40;5.53;;;7.50;57.90;;;;;;5051023;28;20032;-72
2020/12/20 04:46:50;;;;;;;10.95;6.47;;;7.50;57.90;;;;;;5052295;28;20025;-73
2020/12/20 04:49:16;;;;;;;9.73;6.20;;;7.50;57.90;;;;;;5052421;28;20070;-72
2020/12/20 04:51:43;;;;;;;14.80;7.70;;;7.50;57.90;;;;;;5051997;28;20429;-72
2020/12/20 04:54:09;;;;;;;29.00;12.38;;;7.50;58.00;;;;;;5051089;28;20397;-72
2020/12/20 04:56:37;;;;;;;26.63;12.30;;;7.50;58.00;;;;;;5050896;28;20025;-72
2020/12/20 04:59:05;;;;;;;21.17;9.05;;;7.50;58.00;;;;;;5052354;28;20025;-72
2020/12/20 05:01:31;;;;;;;21.73;10.15;;;7.50;57.90;;;;;;5051070;28;20021;-72
2020/12/20 05:03:57;;;;;;;16.25;8.65;;;7.40;57.90;;;;;;5052199;28;20382;-72
2020/12/20 05:06:24;;;;;;;25.13;12.82;;;7.50;58.00;;;;;;5050387;28;20035;-73
2020/12/20 05:08:58;;;;;;;20.48;10.95;;;7.50;58.00;;;;;;5052085;28;20127;-72
2020/12/20 05:11:35;;;;;;;24.17;12.20;;;7.50;58.00;;;;;;5052183;28;20112;-72
2020/12/20 05:14:01;;;;;;;24.08;10.98;;;7.40;57.90;;;;;;5049446;28;20037;-72
2020/12/20 05:16:35;;;;;;;17.08;7.95;;;7.50;58.00;;;;;;5052169;28;20032;-72
2020/12/20 05:19:02;;;;;;;14.97;7.93;;;7.40;57.90;;;;;;5051386;28;20498;-72
2020/12/20 05:21:29;;;;;;;10.10;5.88;;;7.50;58.00;;;;;;5052031;28;20291;-72
2020/12/20 05:23:56;;;;;;;17.10;8.10;;;7.50;57.90;;;;;;5053113;28;20053;-72
2020/12/20 05:26:30;;;;;;;15.52;8.30;;;7.40;58.00;;;;;;5055992;28;20076;-72
2020/12/20 05:29:13;;;;;;;14.32;8.45;;;7.40;58.00;;;;;;5055714;28;20029;-72
2020/12/20 05:31:39;;;;;;;14.57;7.90;;;7.40;58.00;;;;;;5055440;28;20060;-72
2020/12/20 05:34:05;;;;;;;15.18;8.25;;;7.40;58.00;;;;;;5055839;28;20056;-72
2020/12/20 05:36:32;;;;;;;17.45;7.97;;;7.40;58.00;;;;;;5055969;28;20429;-72
2020/12/20 05:39:23;;;;;;;13.73;7.75;;;7.40;58.00;;;;;;5055550;28;20032;-72
2020/12/20 05:41:49;;;;;;;12.43;7.80;;;7.40;58.00;;;;;;5054057;28;20405;-73
2020/12/20 05:44:15;;;;;;;13.77;8.15;;;7.40;58.00;;;;;;5055583;28;20029;-72
2020/12/20 05:46:43;;;;;;;14.95;9.07;;;7.40;58.00;;;;;;5055726;28;20035;-72
2020/12/20 05:49:17;;;;;;;13.18;7.80;;;7.30;58.00;;;;;;5055139;28;20570;-72
2020/12/20 05:52:04;;;;;;;12.10;7.47;;;7.30;58.00;;;;;;5055538;28;20021;-72
2020/12/20 05:54:35;;;;;;;13.95;7.93;;;7.30;58.00;;;;;;5054134;28;20029;-72
2020/12/20 05:57:22;;;;;;;13.45;7.70;;;7.40;58.10;;;;;;5055150;28;20025;-72
2020/12/20 05:59:49;;;;;;;11.98;7.30;;;7.30;58.10;;;;;;5055190;28;20100;-72
2020/12/20 06:02:15;;;;;;;13.20;7.45;;;7.30;58.10;;;;;;5055280;28;20025;-72
2020/12/20 06:04:42;;;;;;;12.63;7.18;;;7.30;58.10;;;;;;5055232;28;20470;-72
2020/12/20 06:07:09;;;;;;;13.27;7.60;;;7.40;58.20;;;;;;5054791;28;20119;-73
2020/12/20 06:09:55;;;;;;;9.65;6.60;;;7.40;58.20;;;;;;5055280;28;20474;-72
2020/12/20 06:12:23;;;;;;;12.27;6.70;;;7.30;58.20;;;;;;5055072;28;20385;-72
2020/12/20 06:14:50;;;;;;;11.80;7.35;;;7.40;58.30;;;;;;5054632;28;20040;-72
2020/12/20 06:17:19;;;;;;;12.88;7.32;;;7.40;58.20;;;;;;5053527;28;20032;-72
2020/12/20 06:20:00;;;;;;;12.30;7.03;;;7.40;58.10;;;;;;5053705;28;20447;-72
2020/12/20 06:22:30;;;;;;;12.75;6.95;;;7.40;58.10;;;;;;5055122;28;20025;-72
2020/12/20 06:25:05;;;;;;;11.82;6.82;;;7.40;58.10;;;;;;5054829;28;20041;-72
2020/12/20 06:27:33;;;;;;;13.25;6.78;;;7.40;58.10;;;;;;5054367;28;20036;-73
2020/12/20 06:30:03;;;;;;;12.10;6.60;;;7.40;58.10;;;;;;5053381;28;20497;-72
2020/12/20 06:32:32;;;;;;;15.07;7.50;;;7.40;58.10;;;;;;5054487;28;20041;-72
2020/12/20 06:35:00;;;;;;;13.18;7.30;;;7.40;58.00;;;;;;5052084;28;20028;-72
2020/12/20 06:37:26;;;;;;;16.02;7.05;;;7.50;57.90;;;;;;5054323;28;20033;-72
2020/12/20 06:39:52;;;;;;;8.35;5.68;;;7.40;57.80;;;;;;5053835;28;20383;-72
2020/12/20 06:42:42;;;;;;;10.02;5.93;;;7.50;57.80;;;;;;5054555;28;20037;-72
2020/12/20 06:45:19;;;;;;;12.10;6.55;;;7.40;57.60;;;;;;5054305;28;20106;-72
2020/12/20 06:47:50;;;;;;;11.80;6.50;;;7.40;57.60;;;;;;5054131;28;20387;-72
2020/12/20 06:50:50;;;;;;;10.75;6.43;;;7.40;57.60;;;;;;5054454;28;20036;-72
2020/12/20 06:53:17;;;;;;;12.43;6.03;;;7.40;57.70;;;;;;5054484;28;20552;-72
2020/12/20 06:55:43;;;;;;;11.35;6.43;;;7.40;57.70;;;;;;5054317;28;20032;-72
2020/12/20 06:58:15;;;;;;;10.82;6.13;;;7.30;57.60;;;;;;5042394;28;20410;-71
2020/12/20 07:00:47;;;;;;;12.55;6.72;;;7.30;57.60;;;;;;5054102;28;20097;-72
2020/12/20 07:03:25;;;;;;;10.85;6.47;;;7.40;57.70;;;;;;5054077;28;20056;-72
2020/12/20 07:05:51;;;;;;;10.05;5.63;;;7.30;57.70;;;;;;5053785;28;20029;-72
2020/12/20 07:08:34;;;;;;;12.25;7.10;;;7.40;57.80;;;;;;5053881;28;20051;-72
2020/12/20 07:11:02;;;;;;;12.32;6.40;;;7.30;57.60;;;;;;5053784;28;20033;-72
2020/12/20 07:13:40;;;;;;;10.88;5.65;;;7.40;57.60;;;;;;5053908;28;20048;-73
2020/12/20 07:16:10;;;;;;;9.43;5.90;;;7.40;57.60;;;;;;5052352;28;20044;-72
2020/12/20 07:18:44;;;;;;;9.88;5.20;;;7.40;57.60;;;;;;5049472;28;20122;-72
2020/12/20 07:21:19;;;;;;;9.00;6.07;;;7.40;57.50;;;;;;5053679;28;20112;-72
2020/12/20 07:23:52;;;;;;;9.18;5.38;;;7.30;57.40;;;;;;5053676;28;20103;-72
2020/12/20 07:26:21;;;;;;;9.27;5.88;;;7.30;57.50;;;;;;5053548;28;20068;-72
2020/12/20 07:28:47;;;;;;;11.52;5.90;;;7.40;57.60;;;;;;5053534;28;20394;-72
2020/12/20 07:31:16;;;;;;;9.55;5.47;;;7.30;57.50;;;;;;5053431;28;20029;-72
2020/12/20 07:33:42;;;;;;;8.70;5.50;;;7.30;57.60;;;;;;5052405;28;20474;-72
2020/12/20 07:36:08;;;;;;;12.45;5.57;;;7.40;57.60;;;;;;5053616;28;20033;-72
2020/12/20 07:38:34;;;;;;;9.75;5.43;;;7.40;57.60;;;;;;5053101;28;20386;-72
2020/12/20 07:41:05;;;;;;;9.40;5.60;;;7.40;57.60;;;;;;5053274;28;20082;-72
2020/12/20 07:43:30;;;;;;;12.43;5.65;;;7.40;57.60;;;;;;5052956;28;20013;-72
2020/12/20 07:46:04;;;;;;;9.05;5.25;;;7.40;57.50;;;;;;5053220;28;20355;-72
2020/12/20 07:48:30;;;;;;;9.80;5.18;;;7.40;57.60;;;;;;5053032;28;20096;-72
2020/12/20 07:51:17;;;;;;;8.52;4.88;;;7.50;57.60;;;;;;5053068;28;20508;-72
2020/12/20 07:53:55;;;;;;;9.18;5.28;;;7.50;57.60;;;;;;5053145;28;20024;-72
2020/12/20 07:56:30;;;;;;;10.80;5.20;;;7.60;57.60;;;;;;5052940;28;20382;-72
2020/12/20 07:58:57;;;;;;;;;;;7.60;57.50;;;;;;5051786;28;20025;-72
2020/12/20 08:01:23;;;;;;;7.88;4.55;;;7.60;57.60;;;;;;5052861;28;20328;-73
2020/12/20 08:03:59;;;;;;;9.43;5.50;;;7.70;57.30;;;;;;5052984;28;20036;-72
2020/12/20 08:06:25;;;;;;;12.57;5.47;;;7.70;57.20;;;;;;5052525;28;20021;-72
2020/12/20 08:08:51;;;;;;;10.88;4.95;;;7.70;57.10;;;;;;5052709;28;20029;-72
2020/12/20 08:11:26;;;;;;;11.35;5.13;;;7.70;57.00;;;;;;5052798;28;20032;-72
2020/12/20 08:13:57;;;;;;;9.27;5.05;;;7.70;56.90;;;;;;5052683;28;20025;-72
2020/12/20 08:16:46;;;;;;;8.35;5.13;;;7.70;56.90;;;;;;5051941;28;20367;-72
2020/12/20 08:19:31;;;;;;;11.82;5.38;;;7.70;56.90;;;;;;5044395;28;20406;-72
2020/12/20 08:22:00;;;;;;;10.32;5.22;;;7.70;56.80;;;;;;5051094;28;20071;-72
2020/12/20 08:24:35;;;;;;;9.55;5.28;;;7.70;56.90;;;;;;5052535;28;20041;-72
2020/12/20 08:27:21;;;;;;;7.90;4.50;;;7.70;56.80;;;;;;5052556;28;20367;-72
2020/12/20 08:29:49;;;;;;;11.40;4.75;;;7.80;56.90;;;;;;5037072;28;20037;-72
2020/12/20 08:32:17;;;;;;;12.98;6.18;;;7.80;56.70;;;;;;5052280;28;20432;-72
2020/12/20 08:34:43;;;;;;;8.52;4.70;;;7.80;56.70;;;;;;5051348;28;20025;-73
2020/12/20 08:37:14;;;;;;;8.02;4.85;;;7.90;56.80;;;;;;5056835;28;20591;-73
2020/12/20 08:39:40;;;;;;;12.05;4.88;;;7.90;56.70;;;;;;5052240;28;20099;-73
2020/12/20 08:42:18;;;;;;;7.97;4.65;;;7.90;56.70;;;;;;5050726;28;20025;-73
2020/12/20 08:44:46;;;;;;;8.30;4.43;;;7.90;56.60;;;;;;5054207;28;20024;-73
2020/12/20 08:47:16;;;;;;;9.52;4.30;;;8.00;56.70;;;;;;5052230;28;20021;-73
2020/12/20 08:49:53;;;;;;;9.05;4.90;;;8.00;56.70;;;;;;5052809;28;20021;-73
2020/12/20 08:52:19;;;;;;;6.13;4.25;;;8.10;56.40;;;;;;5043624;28;20574;-73
2020/12/20 08:54:49;;;;;;;9.38;4.38;;;8.10;56.30;;;;;;5047132;28;20034;-73
2020/12/20 08:57:15;;;;;;;7.55;4.88;;;8.20;56.30;;;;;;5046632;28;20017;-73
2020/12/20 08:59:45;;;;;;;7.90;4.40;;;8.20;56.20;;;;;;5053000;28;20154;-73
2020/12/20 09:02:37;;;;;;;7.50;4.80;;;8.20;56.20;;;;;;5050959;28;20068;-73
2020/12/20 09:05:10;;;;;;;5.65;3.88;;;8.30;56.20;;;;;;5040422;28;20033;-73
2020/12/20 09:07:47;;;;;;;8.05;5.05;;;8.30;56.10;;;;;;5051248;28;20048;-73
2020/12/20 09:10:12;;;;;;;10.27;4.93;;;8.40;55.90;;;;;;5054139;28;20117;-72
2020/12/20 09:12:55;;;;;;;7.88;4.78;;;8.40;55.80;;;;;;5046411;28;20124;-72
2020/12/20 09:15:33;;;;;;;7.97;4.35;;;8.40;55.80;;;;;;5052148;28;20429;-72
2020/12/20 09:18:25;;;;;;;10.18;5.10;;;8.40;55.80;;;;;;5050845;28;20426;-72
2020/12/20 09:20:55;;;;;;;9.07;4.88;;;8.50;55.80;;;;;;5052147;28;20091;-73
2020/12/20 09:23:25;;;;;;;8.05;4.88;;;8.50;55.60;;;;;;5051620;28;20033;-72
2020/12/20 09:25:59;;;;;;;10.98;5.80;;;8.50;55.50;;;;;;5054551;28;20119;-72
2020/12/20 09:28:26;;;;;;;12.10;6.45;;;8.50;55.20;;;;;;5043850;28;20046;-72
2020/12/20 09:30:54;;;;;;;14.73;7.45;;;8.40;55.20;;;;;;5068308;28;20032;-72
2020/12/20 09:33:30;;;;;;;25.65;10.90;;;8.50;55.40;;;;;;5070833;28;20024;-72
2020/12/20 09:35:58;;;;;;;21.20;10.45;;;8.50;55.50;;;;;;5061461;28;20543;-72
2020/12/20 09:38:45;;;;;;;19.42;9.60;;;8.50;55.40;;;;;;5050065;28;20051;-73
2020/12/20 09:41:13;;;;;;;16.25;7.68;;;8.50;55.30;;;;;;5050516;28;20033;-73
2020/12/20 09:43:40;;;;;;;13.82;7.35;;;8.60;55.30;;;;;;5051563;28;20479;-74
2020/12/20 09:46:06;;;;;;;9.32;5.72;;;8.60;55.20;;;;;;5050083;28;20429;-72
2020/12/20 09:48:33;;;;;;;12.18;6.75;;;8.60;55.00;;;;;;5048209;28;20078;-72
2020/12/20 09:50:59;;;;;;;10.45;5.85;;;8.60;55.00;;;;;;5051191;28;20032;-72
2020/12/20 09:53:25;;;;;;;13.35;7.30;;;8.60;54.90;;;;;;5048235;28;20029;-72
2020/12/20 09:55:53;;;;;;;8.05;5.13;;;8.60;54.80;;;;;;5032011;28;20113;-73
2020/12/20 09:58:19;;;;;;;9.32;5.43;;;8.60;54.60;;;;;;5044458;28;20032;-72
2020/12/20 10:00:50;;;;;;;11.00;6.50;;;8.60;54.60;;;;;;5042743;28;20029;-72
2020/12/20 10:03:15;;;;;;;9.50;5.70;;;8.60;54.80;;;;;;5040451;28;20062;-72
2020/12/20 10:05:43;;;;;;;10.50;6.25;;;8.60;54.80;;;;;;5051709;28;20029;-72
2020/12/20 10:08:10;;;;;;;9.10;5.90;;;8.60;54.90;;;;;;5051476;28;20025;-72
2020/12/20 10:10:36;;;;;;;14.00;5.68;;;8.70;54.90;;;;;;5053715;28;20095;-72
2020/12/20 10:13:03;;;;;;;8.40;4.68;;;8.70;54.60;;;;;;5050699;28;20071;-72
2020/12/20 10:15:31;;;;;;;14.05;6.13;;;8.70;54.50;;;;;;5039400;28;20033;-73
2020/12/20 10:18:01;;;;;;;19.27;7.40;;;8.70;54.40;;;;;;5043508;28;20467;-73
2020/12/20 10:20:29;;;;;;;6.30;4.53;;;8.80;54.30;;;;;;5055342;28;20078;-73
2020/12/20 10:22:56;;;;;;;7.82;5.00;;;8.70;53.70;;;;;;5055927;28;20092;-72
2020/12/20 10:25:22;;;;;;;11.35;6.57;;;8.70;53.70;;;;;;5066979;28;20132;-72
2020/12/20 10:27:47;;;;;;;11.55;5.88;;;8.70;53.90;;;;;;5057105;28;20486;-73
2020/12/20 10:30:13;;;;;;;8.60;5.25;;;8.70;53.80;;;;;;5059895;28;20032;-72
2020/12/20 10:32:39;;;;;;;9.85;4.97;;;8.70;53.90;;;;;;5064873;28;20021;-72
2020/12/20 10:35:05;;;;;;;13.13;5.80;;;8.60;53.80;;;;;;5058116;28;20394;-73
2020/12/20 10:37:31;;;;;;;13.57;6.07;;;8.60;53.80;;;;;;5054336;28;20134;-73
2020/12/20 10:39:57;;;;;;;12.35;4.95;;;8.60;53.80;;;;;;5055072;28;20028;-73
2020/12/20 10:42:23;;;;;;;11.52;5.03;;;8.60;53.80;;;;;;5055763;28;20036;-73
2020/12/20 10:44:49;;;;;;;10.38;4.88;;;8.60;53.80;;;;;;5048984;28;20025;-73
2020/12/20 10:47:14;;;;;;;11.60;5.88;;;8.60;53.80;;;;;;5042130;28;20071;-73
2020/12/20 10:49:40;;;;;;;16.10;7.18;;;8.50;53.80;;;;;;5050464;28;20037;-72
2020/12/20 10:52:09;;;;;;;19.73;10.48;;;8.50;53.80;;;;;;5050248;28;20026;-73
2020/12/20 10:54:35;;;;;;;14.23;8.85;;;8.50;53.90;;;;;;5047905;28;20021;-72
2020/12/20 10:57:02;;;;;;;8.55;5.47;;;8.50;54.10;;;;;;5059771;28;20558;-72
2020/12/20 10:59:30;;;;;;;11.93;5.18;;;8.60;54.10;;;;;;5052858;28;20025;-72
2020/12/20 11:01:56;;;;;;;15.48;7.70;;;8.60;53.90;;;;;;5057305;28;20108;-72
2020/12/20 11:04:23;;;;;;;17.77;11.65;;;8.60;53.80;;;;;;5063414;28;20061;-72
2020/12/20 11:06:48;;;;;;;12.50;7.28;;;8.60;54.00;;;;;;5069659;28;20033;-72
2020/12/20 11:09:14;;;;;;;11.32;6.22;;;8.60;53.80;;;;;;5057436;28;20025;-72
2020/12/20 11:11:41;;;;;;;9.55;4.88;;;8.70;53.70;;;;;;5055181;28;20028;-72
2020/12/20 11:14:07;;;;;;;7.45;4.90;;;8.70;53.50;;;;;;5061471;28;20016;-72
2020/12/20 11:16:34;;;;;;;9.13;4.80;;;8.70;53.50;;;;;;5062481;28;20021;-72
2020/12/20 11:19:00;;;;;;;9.68;5.85;;;8.70;53.70;;;;;;5064313;28;20489;-72
2020/12/20 11:21:26;;;;;;;7.40;4.25;;;8.70;53.70;;;;;;5072994;28;20036;-72
2020/12/20 11:23:52;;;;;;;8.80;5.00;;;8.80;53.40;;;;;;5070157;28;20360;-72
2020/12/20 11:26:23;;;;;;;16.40;8.48;;;8.80;53.30;;;;;;5053119;28;20086;-72
2020/12/20 11:28:51;;;;;;;12.55;6.18;;;8.80;53.10;;;;;;5051131;28;20032;-73
2020/12/20 11:31:22;;;;;;;16.83;9.02;;;8.80;53.30;;;;;;5036150;28;20052;-72
2020/12/20 11:33:49;;;;;;;15.35;6.63;;;8.80;53.30;;;;;;5033831;28;20056;-73
2020/12/20 11:36:21;;;;;;;9.68;5.35;;;8.90;53.30;;;;;;5034010;28;20459;-73
2020/12/20 11:38:48;;;;;;;8.30;4.53;;;8.90;53.10;;;;;;5033458;28;20045;-72
2020/12/20 11:41:14;;;;;;;8.35;4.45;;;8.80;52.80;;;;;;5057659;28;20438;-72
2020/12/20 11:43:41;;;;;;;10.23;4.68;;;8.80;53.00;;;;;;5055653;28;20027;-72
2020/12/20 11:46:11;;;;;;;7.93;4.53;;;8.80;53.00;;;;;;5055462;28;20028;-73
2020/12/20 11:48:37;;;;;;;8.40;4.70;;;8.90;53.30;;;;;;5045650;28;20028;-72
2020/12/20 11:51:03;;;;;;;7.57;4.80;;;8.90;53.10;;;;;;5052725;28;20033;-72
2020/12/20 11:53:29;;;;;;;5.60;3.92;;;8.90;53.10;;;;;;5053004;28;20036;-72
2020/12/20 11:55:55;;;;;;;9.98;5.25;;;8.90;52.90;;;;;;5064732;28;20029;-72
2020/12/20 11:58:21;;;;;;;8.68;4.88;;;8.90;52.70;;;;;;5053926;28;20032;-72
2020/12/20 12:00:48;;;;;;;7.25;4.05;;;8.90;52.80;;;;;;5072689;28;20041;-72
2020/12/20 12:03:15;;;;;;;6.95;3.40;;;8.90;53.00;;;;;;5074427;28;20485;-71
2020/12/20 12:05:44;;;;;;;6.85;4.05;;;8.90;53.00;;;;;;5076349;28;20032;-71
2020/12/20 12:08:10;;;;;;;10.27;4.70;;;8.90;52.80;;;;;;5059555;28;20482;-72
2020/12/20 12:10:42;;;;;;;6.22;4.32;;;8.90;52.80;;;;;;5044108;28;20501;-72
2020/12/20 12:13:10;;;;;;;6.65;4.13;;;8.90;52.60;;;;;;5042219;28;20056;-72
2020/12/20 12:15:37;;;;;;;7.00;3.88;;;8.90;52.50;;;;;;5054221;28;20036;-72
2020/12/20 12:18:03;;;;;;;6.75;3.80;;;8.90;52.40;;;;;;5052552;28;20029;-72
2020/12/20 12:20:29;;;;;;;6.10;3.80;;;8.90;52.40;;;;;;5051982;28;20025;-72
2020/12/20 12:22:55;;;;;;;6.43;3.58;;;8.90;52.40;;;;;;5041780;28;20044;-72
2020/12/20 12:25:21;;;;;;;7.70;3.90;;;8.80;52.30;;;;;;5041328;28;20045;-72
2020/12/20 12:27:46;;;;;;;5.57;3.85;;;8.80;52.50;;;;;;5048232;28;20029;-72
2020/12/20 12:30:13;;;;;;;5.95;3.25;;;8.80;52.70;;;;;;5047292;28;20029;-72
2020/12/20 12:32:39;;;;;;;5.93;3.40;;;8.80;52.60;;;;;;5052776;28;20033;-72
2020/12/20 12:35:06;;;;;;;6.30;3.97;;;8.80;52.60;;;;;;5053540;28;20028;-72
2020/12/20 12:37:32;;;;;;;6.55;4.07;;;8.80;52.50;;;;;;5052639;28;20049;-72
2020/12/20 12:39:58;;;;;;;6.78;3.70;;;8.80;52.50;;;;;;5053349;28;20086;-72
2020/12/20 12:42:24;;;;;;;11.45;4.30;;;8.80;52.60;;;;;;5051933;28;20025;-72
2020/12/20 12:44:50;;;;;;;11.07;4.30;;;8.80;52.70;;;;;;5051901;28;20025;-72
2020/12/20 12:47:17;;;;;;;4.85;3.40;;;8.80;52.70;;;;;;5052100;28;20433;-72
2020/12/20 12:49:43;;;;;;;12.50;4.25;;;8.80;52.60;;;;;;5053669;28;20028;-72
2020/12/20 12:52:09;;;;;;;5.70;3.95;;;8.80;52.60;;;;;;5053239;28;20098;-72
2020/12/20 12:54:35;;;;;;;7.40;3.90;;;8.80;52.70;;;;;;5052041;28;20560;-72
2020/12/20 12:57:01;;;;;;;7.40;3.70;;;8.80;52.60;;;;;;5051961;28;20037;-72